logo
Rechercher aéroport 
image banner adimage banner adimage banner ad
image banner ad

FAGRAS - Graskop

Situé à , South Africa

ICAO - , IATA -

Données fournies par Airmate  

Information générale

Coordonnées: S24°57'21" E30°51'3"
Élévation : 4853 feet MSL.
 
Voir autres Aéroports à Kwazulu-Natal

Données opérationnelles

Special qualification required
Heure actuelle UTC:
Heure actuelle locale:
METAR: FAKN 240600Z 20002KT CAVOK 15/08 Q1025 NOSIG
TAF: TAF FAKN 240600Z 2407/2418 VRB03KT CAVOK TX25/2413Z TN16/2418Z BECMG 2410/2412 14010KT FM241700 VRB03KT 9999 SCT020
Voir NOTAMs / SUP AIP / TFR affectant cet aéroport [VIEW]
Fréquences de communication: [VIEW]

Pistes:

Identifiant RWYQFULongueur (ft)Largeur (ft)SurfaceLDA (ft)
01170°246166GRASS
19350°246166GRASS
0631°124766GRASS
24211°124766GRASS
12102°137866GRASS
30282°137866GRASS
15138°267433ASPH
33318°267433ASPH

Coordonnées de l'aéroport

Adresse: South Africa

Vue satellite de FAGRAS